Time;durP1;ratioP1;P1;durP2;ratioP2;P2;SDS_P1;SDS_P2;PMS_P1;PMS_P2;Temp;Humidity;BMP_temperature;BMP_pressure;BME280_temperature;BME280_humidity;BME280_pressure;Samples;Min_cycle;Max_cycle;Signal;HPM_P1;HPM_P2
2022/05/01 00:01:43;;;;;;;15.73;7.53;;;12.70;99.90;;;;;;5043863;28;20048;-79
2022/05/01 00:04:09;;;;;;;16.38;8.43;;;12.70;99.90;;;;;;5045657;28;20451;-79
2022/05/01 00:06:35;;;;;;;12.30;8.00;;;12.60;99.90;;;;;;5045903;28;20018;-79
2022/05/01 00:09:02;;;;;;;18.30;8.70;;;12.50;99.90;;;;;;5043774;28;20017;-78
2022/05/01 00:11:30;;;;;;;17.73;8.00;;;12.40;99.90;;;;;;5045348;28;20060;-79
2022/05/01 00:13:59;;;;;;;17.13;9.40;;;12.40;99.90;;;;;;5045143;28;20044;-77
2022/05/01 00:16:25;;;;;;;18.05;10.15;;;12.30;99.90;;;;;;5041712;28;20013;-78
2022/05/01 00:18:51;;;;;;;14.93;9.90;;;12.30;99.90;;;;;;5044809;28;20017;-78
2022/05/01 00:21:17;;;;;;;20.88;10.27;;;12.20;99.90;;;;;;5045369;28;20084;-79
2022/05/01 00:23:43;;;;;;;27.85;14.98;;;12.20;99.90;;;;;;5044045;28;20029;-78
2022/05/01 00:26:09;;;;;;;26.23;10.65;;;12.10;99.90;;;;;;5044971;28;20032;-78
2022/05/01 00:28:39;;;;;;;24.35;11.20;;;12.10;99.90;;;;;;5045008;28;20026;-79
2022/05/01 00:31:06;;;;;;;20.15;9.15;;;12.10;99.90;;;;;;5041423;28;20050;-78
2022/05/01 00:36:27;;;;;;;20.98;9.45;;;12.00;99.90;;;;;;5044456;28;20071;-79
2022/05/01 00:38:57;;;;;;;23.38;9.73;;;12.00;99.90;;;;;;5043292;28;20013;-79
2022/05/01 00:41:24;;;;;;;23.33;11.32;;;12.00;99.90;;;;;;5043434;28;20436;-80
2022/05/01 00:44:09;;;;;;;28.67;11.20;;;11.90;99.90;;;;;;5044448;28;20043;-78
2022/05/01 00:46:46;;;;;;;47.20;17.45;;;11.90;99.90;;;;;;5043754;28;20060;-79
2022/05/01 00:49:17;;;;;;;41.30;16.55;;;11.80;99.90;;;;;;5042595;28;20017;-77
2022/05/01 00:51:51;;;;;;;60.00;21.77;;;11.80;99.90;;;;;;5043540;28;20030;-78
2022/05/01 00:54:20;;;;;;;58.83;24.92;;;11.80;99.90;;;;;;5043345;28;20029;-79
2022/05/01 00:56:48;;;;;;;56.63;22.05;;;11.80;99.90;;;;;;5040629;28;20018;-78
2022/05/01 00:59:15;;;;;;;47.55;19.55;;;11.80;99.90;;;;;;5043831;28;20518;-77
2022/05/01 01:01:42;;;;;;;41.03;18.65;;;11.80;99.90;;;;;;5044677;28;20028;-79
2022/05/01 01:04:09;;;;;;;48.50;19.55;;;11.70;99.90;;;;;;5043316;28;20117;-80
2022/05/01 01:06:36;;;;;;;64.60;27.85;;;11.70;99.90;;;;;;5043656;28;20585;-78
2022/05/01 01:09:03;;;;;;;79.53;32.38;;;11.70;99.90;;;;;;5044650;28;20024;-78
2022/05/01 01:11:29;;;;;;;75.97;33.10;;;11.70;99.90;;;;;;5042943;28;20021;-80
2022/05/01 01:13:55;;;;;;;76.63;32.28;;;11.70;99.90;;;;;;5043388;28;20013;-78
2022/05/01 01:16:21;;;;;;;72.05;30.25;;;11.70;99.90;;;;;;5044432;28;20104;-78
2022/05/01 01:18:47;;;;;;;64.47;28.25;;;11.70;99.90;;;;;;5043219;28;20025;-79
2022/05/01 01:21:13;;;;;;;61.40;25.98;;;11.70;99.90;;;;;;5043110;28;20382;-80
2022/05/01 01:23:40;;;;;;;53.75;26.50;;;11.70;99.90;;;;;;5043122;28;21412;-79
2022/05/01 01:26:08;;;;;;;51.78;24.33;;;11.80;99.90;;;;;;5039649;28;20029;-78
2022/05/01 01:28:36;;;;;;;48.13;23.80;;;11.80;99.90;;;;;;5043189;28;20028;-80
2022/05/01 01:33:53;;;;;;;52.97;25.30;;;11.70;99.90;;;;;;5040625;28;20032;-79
2022/05/01 01:36:24;;;;;;;46.00;25.17;;;11.70;99.90;;;;;;5042113;28;20020;-77
2022/05/01 01:38:50;;;;;;;57.63;27.13;;;11.80;99.90;;;;;;5040999;28;20032;-78
2022/05/01 01:41:24;;;;;;;58.40;27.67;;;11.80;99.90;;;;;;5042211;28;20124;-78
2022/05/01 01:43:51;;;;;;;58.72;28.42;;;11.80;99.90;;;;;;5041031;28;20013;-78
2022/05/01 01:46:17;;;;;;;55.40;27.30;;;11.80;99.90;;;;;;5042549;28;20024;-80
2022/05/01 01:48:47;;;;;;;55.60;26.73;;;11.80;99.90;;;;;;5042825;28;20013;-80
2022/05/01 01:51:13;;;;;;;56.47;27.20;;;11.70;99.90;;;;;;5042094;28;20021;-78
2022/05/01 01:53:40;;;;;;;65.43;28.45;;;11.80;99.90;;;;;;5041600;28;20028;-79
2022/05/01 01:56:10;;;;;;;59.10;28.63;;;11.80;99.90;;;;;;5039334;28;20024;-78
2022/05/01 01:58:37;;;;;;;57.78;25.23;;;11.80;99.90;;;;;;5042163;28;20457;-80
2022/05/01 02:01:05;;;;;;;60.28;26.95;;;11.80;99.90;;;;;;5043852;28;20057;-79
2022/05/01 02:03:30;;;;;;;48.00;23.25;;;11.80;99.90;;;;;;5041307;28;20077;-80
2022/05/01 02:05:56;;;;;;;40.80;20.80;;;11.80;99.90;;;;;;5042700;28;20494;-78
2022/05/01 02:08:22;;;;;;;43.28;21.65;;;11.80;99.90;;;;;;5053292;28;20060;-78
2022/05/01 02:10:48;;;;;;;36.17;18.45;;;11.80;99.90;;;;;;5054081;28;20048;-79
2022/05/01 02:13:14;;;;;;;35.67;18.35;;;11.80;99.90;;;;;;5053202;28;20108;-79
2022/05/01 02:15:40;;;;;;;33.03;16.42;;;11.80;99.90;;;;;;5053645;28;20025;-79
2022/05/01 02:18:06;;;;;;;33.80;16.33;;;11.80;99.90;;;;;;5052499;28;20017;-80
2022/05/01 02:23:20;;;;;;;32.97;14.43;;;11.80;99.90;;;;;;5053395;28;20024;-78
2022/05/01 02:25:46;;;;;;;32.85;15.10;;;11.70;99.90;;;;;;5053570;28;20064;-79
2022/05/01 02:28:12;;;;;;;33.38;15.48;;;11.80;99.90;;;;;;5053469;28;20101;-78
2022/05/01 02:30:38;;;;;;;28.90;13.82;;;11.80;99.90;;;;;;5053543;28;20116;-78
2022/05/01 02:33:07;;;;;;;32.10;14.02;;;11.90;99.90;;;;;;5053131;28;20051;-79
2022/05/01 02:35:34;;;;;;;21.80;12.27;;;11.90;99.90;;;;;;5053132;28;20017;-78
2022/05/01 02:38:03;;;;;;;21.85;12.27;;;11.80;99.90;;;;;;5051823;28;20070;-79
2022/05/01 02:40:30;;;;;;;27.33;12.80;;;11.80;99.90;;;;;;5052515;28;20128;-79
2022/05/01 02:43:00;;;;;;;28.90;13.55;;;11.90;99.90;;;;;;5052848;28;20068;-79
2022/05/01 02:45:29;;;;;;;35.03;15.50;;;11.80;99.90;;;;;;5052664;28;20107;-78
2022/05/01 02:47:55;;;;;;;29.88;15.32;;;11.80;99.90;;;;;;5052904;28;20028;-80
2022/05/01 02:50:21;;;;;;;35.92;16.98;;;11.80;99.90;;;;;;5052988;28;20183;-79
2022/05/01 02:52:47;;;;;;;36.00;19.77;;;11.80;99.90;;;;;;5053385;28;20021;-80
2022/05/01 02:55:14;;;;;;;44.30;23.90;;;11.80;99.90;;;;;;5053548;28;20025;-79
2022/05/01 02:57:41;;;;;;;60.75;24.95;;;11.80;99.90;;;;;;5053409;28;20017;-78
2022/05/01 03:00:16;;;;;;;61.83;30.50;;;11.80;99.90;;;;;;5052932;28;20037;-78
2022/05/01 03:02:46;;;;;;;62.10;33.25;;;11.90;99.90;;;;;;5053265;28;20111;-78
2022/05/01 03:05:12;;;;;;;80.10;44.47;;;11.90;99.90;;;;;;5053226;28;20021;-79
2022/05/01 03:07:38;;;;;;;93.10;50.35;;;11.90;99.90;;;;;;5052630;28;20017;-80
2022/05/01 03:10:05;;;;;;;87.97;47.22;;;11.90;99.90;;;;;;5052883;28;20032;-79
2022/05/01 03:12:30;;;;;;;85.22;46.58;;;12.00;99.90;;;;;;5053268;28;20451;-79
2022/05/01 03:14:57;;;;;;;82.53;44.67;;;12.00;99.90;;;;;;5052031;28;20071;-78
2022/05/01 03:17:23;;;;;;;78.32;43.67;;;11.90;99.90;;;;;;5053049;28;20021;-80
2022/05/01 03:22:33;;;;;;;71.90;41.58;;;11.90;99.90;;;;;;5052242;28;20055;-80
2022/05/01 03:24:59;;;;;;;58.65;34.15;;;11.90;99.90;;;;;;5051974;28;20021;-78
2022/05/01 03:27:25;;;;;;;43.20;26.20;;;11.90;99.90;;;;;;5052473;28;20021;-79
2022/05/01 03:32:36;;;;;;;70.72;38.85;;;12.00;99.90;;;;;;5052883;28;20379;-78
2022/05/01 03:35:02;;;;;;;77.53;42.95;;;12.00;99.90;;;;;;5053230;28;20079;-80
2022/05/01 03:37:29;;;;;;;120.38;66.93;;;12.00;99.90;;;;;;5052764;28;20049;-79
2022/05/01 03:39:55;;;;;;;130.35;71.25;;;12.00;99.90;;;;;;5051128;28;20072;-80
2022/05/01 03:42:21;;;;;;;131.05;70.60;;;12.00;99.90;;;;;;5052895;28;20440;-77
2022/05/01 03:44:46;;;;;;;97.00;56.50;;;12.00;99.90;;;;;;5053105;28;20031;-79
2022/05/01 03:47:12;;;;;;;80.60;46.25;;;12.10;99.90;;;;;;5052886;28;20021;-79
2022/05/01 03:49:38;;;;;;;45.63;24.85;;;12.10;99.90;;;;;;5056609;28;20096;-78
2022/05/01 03:52:04;;;;;;;35.00;18.60;;;12.10;99.90;;;;;;5056129;28;20108;-80
2022/05/01 03:54:30;;;;;;;46.22;23.00;;;12.10;99.90;;;;;;5055225;28;20032;-80
2022/05/01 03:56:56;;;;;;;38.17;22.65;;;12.20;99.90;;;;;;5056075;28;20075;-79
2022/05/01 03:59:21;;;;;;;25.83;14.75;;;12.10;99.90;;;;;;5055857;28;20032;-79
2022/05/01 04:01:47;;;;;;;21.85;13.60;;;12.10;99.90;;;;;;5056352;28;20032;-80
2022/05/01 04:04:13;;;;;;;32.95;11.73;;;12.10;99.90;;;;;;5054710;28;20029;-79
2022/05/01 04:06:39;;;;;;;27.65;12.73;;;12.20;99.90;;;;;;5055852;28;20074;-79
2022/05/01 04:09:05;;;;;;;23.65;12.52;;;12.20;99.90;;;;;;5056101;28;20337;-78
2022/05/01 04:11:31;;;;;;;25.63;13.95;;;12.20;99.90;;;;;;5056293;28;20512;-78
2022/05/01 04:13:56;;;;;;;57.42;29.48;;;12.20;99.90;;;;;;5054498;28;20100;-79
2022/05/01 04:16:22;;;;;;;71.32;40.95;;;12.20;99.90;;;;;;5055491;28;20044;-78
2022/05/01 04:18:48;;;;;;;91.03;47.95;;;12.20;99.90;;;;;;5056449;28;20029;-78
2022/05/01 04:21:13;;;;;;;95.20;50.55;;;12.30;99.90;;;;;;5054484;28;20036;-78
2022/05/01 04:23:40;;;;;;;98.90;51.80;;;12.30;99.90;;;;;;5056174;28;20448;-77
2022/05/01 04:26:05;;;;;;;84.05;43.78;;;12.30;99.90;;;;;;5055972;28;20020;-79
2022/05/01 04:28:31;;;;;;;90.22;45.78;;;12.20;99.90;;;;;;5055733;28;20025;-79
2022/05/01 04:30:57;;;;;;;73.28;41.47;;;12.20;99.90;;;;;;5055668;28;20498;-79
2022/05/01 04:33:23;;;;;;;67.03;38.40;;;12.30;99.90;;;;;;5054558;28;20440;-78
2022/05/01 04:35:50;;;;;;;74.97;34.92;;;12.30;99.90;;;;;;5054659;28;20025;-79
2022/05/01 04:38:21;;;;;;;60.53;30.15;;;12.40;99.90;;;;;;5055299;28;20392;-79
2022/05/01 04:40:52;;;;;;;53.95;27.80;;;12.30;99.90;;;;;;5055360;28;20127;-79
2022/05/01 04:43:23;;;;;;;48.60;25.90;;;12.40;99.90;;;;;;5055901;28;20024;-80
2022/05/01 04:45:54;;;;;;;43.17;23.35;;;12.40;99.90;;;;;;5055543;28;20079;-79
2022/05/01 04:48:21;;;;;;;46.83;20.67;;;12.40;99.90;;;;;;5055181;28;20059;-79
2022/05/01 04:50:48;;;;;;;41.95;20.92;;;12.50;99.90;;;;;;5054537;28;20425;-80
2022/05/01 04:53:16;;;;;;;37.47;18.02;;;12.50;99.90;;;;;;5055312;28;20091;-78
2022/05/01 04:55:44;;;;;;;38.58;17.38;;;12.60;99.90;;;;;;5053915;28;20055;-79
2022/05/01 04:58:11;;;;;;;30.02;15.35;;;12.60;99.90;;;;;;5055307;28;20025;-79
2022/05/01 05:00:37;;;;;;;26.77;11.38;;;12.60;99.90;;;;;;5050374;28;20038;-79
2022/05/01 05:03:04;;;;;;;23.73;10.40;;;12.60;99.90;;;;;;5033961;28;20021;-79
2022/05/01 05:05:34;;;;;;;24.85;9.02;;;12.70;99.90;;;;;;5035361;28;20021;-78
2022/05/01 05:10:49;;;;;;;18.50;7.72;;;12.70;99.90;;;;;;5035580;28;20383;-80
2022/05/01 05:13:24;;;;;;;19.20;9.32;;;12.70;99.90;;;;;;5053666;28;20025;-77
2022/05/01 05:15:50;;;;;;;19.73;9.80;;;12.80;99.90;;;;;;5055257;28;20028;-79
2022/05/01 05:18:16;;;;;;;17.48;8.48;;;12.80;99.90;;;;;;5054904;28;20049;-78
2022/05/01 05:20:42;;;;;;;21.15;8.95;;;12.80;99.90;;;;;;5053800;28;20059;-79
2022/05/01 05:23:08;;;;;;;20.20;8.82;;;12.90;99.90;;;;;;5053577;28;20021;-79
2022/05/01 05:25:34;;;;;;;20.77;9.18;;;12.80;99.90;;;;;;5053670;28;20024;-78
2022/05/01 05:28:00;;;;;;;20.85;9.27;;;12.90;99.90;;;;;;5054946;28;20017;-79
2022/05/01 05:30:26;;;;;;;27.30;9.50;;;12.90;99.90;;;;;;5054463;28;20024;-77
2022/05/01 05:32:51;;;;;;;27.67;10.85;;;12.90;99.90;;;;;;5054525;28;20340;-79
2022/05/01 05:35:17;;;;;;;20.58;9.02;;;12.90;99.90;;;;;;5053595;28;20466;-79
2022/05/01 05:37:43;;;;;;;18.05;8.43;;;13.00;99.90;;;;;;5053375;28;20098;-79
2022/05/01 05:40:10;;;;;;;15.43;7.03;;;13.00;99.90;;;;;;5054236;28;20454;-77
2022/05/01 05:42:36;;;;;;;14.95;7.10;;;13.10;99.90;;;;;;5054397;28;20028;-76
2022/05/01 05:45:02;;;;;;;17.50;7.15;;;13.20;99.90;;;;;;5054480;28;20467;-78
2022/05/01 05:47:28;;;;;;;14.45;7.57;;;13.20;99.90;;;;;;5053141;28;20028;-77
2022/05/01 05:49:54;;;;;;;16.58;6.28;;;13.30;99.90;;;;;;5054302;28;20025;-78
2022/05/01 05:52:20;;;;;;;14.75;6.70;;;13.40;99.90;;;;;;5053775;28;20096;-79
2022/05/01 05:54:46;;;;;;;16.83;5.80;;;13.50;99.90;;;;;;5052789;28;20045;-77
2022/05/01 05:57:11;;;;;;;13.05;6.43;;;13.50;99.90;;;;;;5038631;28;20017;-78
2022/05/01 05:59:37;;;;;;;10.98;5.80;;;13.50;99.90;;;;;;5032696;28;20030;-76
2022/05/01 06:02:03;;;;;;;12.18;6.40;;;13.50;99.90;;;;;;5039227;28;20363;-78
2022/05/01 06:04:29;;;;;;;12.07;6.05;;;13.50;99.90;;;;;;5043600;28;20024;-76
2022/05/01 06:06:55;;;;;;;17.67;6.55;;;13.60;99.90;;;;;;5043387;28;20071;-77
2022/05/01 06:09:21;;;;;;;15.68;7.18;;;13.60;99.90;;;;;;5044443;28;20024;-78
2022/05/01 06:11:47;;;;;;;18.13;6.75;;;13.60;99.90;;;;;;5042635;28;20092;-80
2022/05/01 06:14:12;;;;;;;13.57;6.70;;;13.70;99.90;;;;;;5042409;28;20044;-79
2022/05/01 06:16:38;;;;;;;17.35;6.78;;;13.70;99.90;;;;;;5044259;28;20053;-80
2022/05/01 06:19:05;;;;;;;12.40;6.43;;;13.80;99.90;;;;;;5042355;28;20037;-79
2022/05/01 06:21:30;;;;;;;12.80;7.00;;;13.90;99.90;;;;;;5043774;28;20105;-79
2022/05/01 06:23:56;;;;;;;15.48;7.90;;;13.90;99.90;;;;;;5044453;28;20096;-80
2022/05/01 06:26:22;;;;;;;14.57;8.63;;;14.00;99.90;;;;;;5040991;28;20022;-78
2022/05/01 06:28:48;;;;;;;17.63;10.48;;;14.10;99.90;;;;;;5044047;28;20418;-79
2022/05/01 06:31:15;;;;;;;28.67;12.85;;;14.20;99.90;;;;;;5043877;28;20096;-79
2022/05/01 06:33:43;;;;;;;26.10;11.68;;;14.20;99.90;;;;;;5035766;28;20113;-77
2022/05/01 06:36:09;;;;;;;20.92;11.13;;;14.30;99.90;;;;;;5031161;28;20025;-78
2022/05/01 06:38:35;;;;;;;12.57;6.85;;;14.40;99.90;;;;;;5035494;28;20040;-76
2022/05/01 06:41:04;;;;;;;17.20;9.10;;;14.40;99.90;;;;;;5038349;28;20129;-77
2022/05/01 06:43:31;;;;;;;19.73;10.93;;;14.50;99.90;;;;;;5033578;28;20035;-79
2022/05/01 06:45:57;;;;;;;22.73;11.50;;;14.50;99.90;;;;;;5033561;28;20024;-76
2022/05/01 06:48:23;;;;;;;21.70;11.13;;;14.60;99.90;;;;;;5033320;28;20026;-76
2022/05/01 06:50:48;;;;;;;18.00;9.60;;;14.80;99.90;;;;;;5041882;28;20107;-76
2022/05/01 06:53:15;;;;;;;18.92;8.38;;;14.80;99.90;;;;;;5041405;28;20514;-78
2022/05/01 06:55:41;;;;;;;20.90;9.48;;;15.00;99.90;;;;;;5041660;28;20362;-78
2022/05/01 06:58:07;;;;;;;16.08;9.90;;;15.00;99.90;;;;;;5038737;28;20079;-76
2022/05/01 07:00:33;;;;;;;13.20;7.18;;;15.20;99.90;;;;;;5032070;28;20053;-77
2022/05/01 07:02:59;;;;;;;9.20;6.10;;;15.20;99.90;;;;;;5032459;28;20087;-77
2022/05/01 07:05:25;;;;;;;12.18;5.90;;;15.30;99.90;;;;;;5033176;28;20032;-77
2022/05/01 07:07:51;;;;;;;9.23;5.68;;;15.40;99.90;;;;;;5032532;28;20033;-77
2022/05/01 07:10:18;;;;;;;13.60;6.25;;;15.60;99.90;;;;;;5033704;28;20482;-78
2022/05/01 07:12:44;;;;;;;10.20;5.32;;;15.80;99.90;;;;;;5036076;28;20026;-77
2022/05/01 07:15:11;;;;;;;8.85;5.43;;;15.90;99.90;;;;;;5033367;28;20022;-77
2022/05/01 07:17:36;;;;;;;15.15;5.45;;;15.90;99.90;;;;;;5033244;28;20026;-76
2022/05/01 07:20:03;;;;;;;7.75;5.13;;;15.90;99.90;;;;;;5033402;28;20028;-75
2022/05/01 07:22:29;;;;;;;9.80;5.25;;;15.90;99.90;;;;;;5033533;28;20100;-76
2022/05/01 07:24:56;;;;;;;11.43;6.32;;;15.90;99.90;;;;;;5035952;28;20025;-76
2022/05/01 07:27:22;;;;;;;8.48;5.72;;;15.90;99.90;;;;;;5051439;28;20031;-75
2022/05/01 07:29:48;;;;;;;8.68;4.60;;;16.00;99.90;;;;;;5056960;28;20021;-78
2022/05/01 07:32:13;;;;;;;15.43;3.83;;;16.00;99.90;;;;;;5057000;28;20093;-76
2022/05/01 07:34:39;;;;;;;10.18;4.45;;;16.00;99.90;;;;;;5057374;28;20059;-73
2022/05/01 07:37:05;;;;;;;8.52;4.47;;;16.10;99.90;;;;;;5056683;28;20525;-74
2022/05/01 07:39:31;;;;;;;11.07;5.32;;;16.10;99.90;;;;;;5056807;28;20021;-75
2022/05/01 07:41:57;;;;;;;8.80;4.70;;;16.20;99.90;;;;;;5056678;28;20032;-74
2022/05/01 07:44:23;;;;;;;8.38;4.20;;;16.30;99.90;;;;;;5056637;28;20048;-75
2022/05/01 07:46:51;;;;;;;8.63;4.22;;;16.60;99.90;;;;;;5055424;28;20118;-75
2022/05/01 07:49:17;;;;;;;7.47;3.88;;;16.80;99.90;;;;;;5056337;28;20100;-75
2022/05/01 07:51:42;;;;;;;20.30;5.88;;;16.90;99.90;;;;;;5055158;28;20120;-77
2022/05/01 07:54:08;;;;;;;7.90;3.72;;;17.10;99.90;;;;;;5055873;28;20082;-75
2022/05/01 07:56:34;;;;;;;12.45;3.47;;;17.20;98.50;;;;;;5055613;28;20392;-76
2022/05/01 07:59:00;;;;;;;10.80;4.38;;;17.30;99.90;;;;;;5055971;28;20104;-75
2022/05/01 08:01:27;;;;;;;18.65;5.85;;;17.50;99.90;;;;;;5055906;28;20068;-76
2022/05/01 08:06:37;;;;;;;12.15;4.30;;;17.60;98.90;;;;;;5055865;28;20465;-76
2022/05/01 08:09:03;;;;;;;10.50;4.95;;;17.70;96.60;;;;;;5053946;28;20100;-76
2022/05/01 08:11:29;;;;;;;7.45;4.30;;;17.70;97.90;;;;;;5036242;28;20100;-74
2022/05/01 08:13:55;;;;;;;12.60;5.32;;;17.70;95.10;;;;;;5036410;28;20075;-76
2022/05/01 08:16:21;;;;;;;9.98;5.00;;;17.80;95.90;;;;;;5054201;28;20021;-75
2022/05/01 08:21:33;;;;;;;10.63;5.03;;;17.80;92.00;;;;;;5055897;28;20051;-75
2022/05/01 08:23:59;;;;;;;17.60;7.75;;;17.90;90.60;;;;;;5056307;28;20021;-75
2022/05/01 08:26:25;;;;;;;7.03;3.80;;;17.90;86.60;;;;;;5056242;28;20021;-76
2022/05/01 08:28:53;;;;;;;7.57;3.85;;;18.00;85.80;;;;;;5055661;28;20021;-76
2022/05/01 08:31:20;;;;;;;6.65;3.17;;;18.20;84.90;;;;;;5055593;28;20028;-74
2022/05/01 08:33:46;;;;;;;8.75;3.65;;;18.60;84.80;;;;;;5053114;28;20064;-76
2022/05/01 08:36:12;;;;;;;6.32;2.92;;;18.90;82.50;;;;;;5038045;28;20053;-74
2022/05/01 08:38:38;;;;;;;5.32;2.72;;;19.20;80.10;;;;;;5043065;28;20025;-74
2022/05/01 08:41:05;;;;;;;6.70;3.10;;;19.40;78.50;;;;;;5038019;28;20357;-74
2022/05/01 08:43:31;;;;;;;8.10;3.55;;;19.50;73.90;;;;;;5035787;28;20513;-76
2022/05/01 08:46:16;;;;;;;8.73;4.13;;;20.30;76.10;;;;;;5034407;28;20066;-75
2022/05/01 08:48:59;;;;;;;9.93;3.40;;;21.00;70.40;;;;;;5035728;28;20022;-76
2022/05/01 08:51:25;;;;;;;8.18;5.15;;;;;;;;;;5041034;28;20479;-77
2022/05/01 08:53:52;;;;;;;9.90;4.88;;;21.80;66.10;;;;;;5044278;28;20032;-77
2022/05/01 08:56:19;;;;;;;5.60;4.13;;;21.90;64.60;;;;;;5045856;28;20017;-75
2022/05/01 08:58:46;;;;;;;7.35;2.63;;;22.00;63.20;;;;;;5045136;28;20022;-77
2022/05/01 09:01:12;;;;;;;5.10;3.33;;;21.70;60.20;;;;;;5035663;28;20026;-83
2022/05/01 09:03:41;;;;;;;4.97;3.72;;;21.50;61.80;;;;;;5035170;28;20448;-78
2022/05/01 09:06:07;;;;;;;6.68;3.13;;;21.60;61.10;;;;;;5035209;28;20022;-77
2022/05/01 09:08:32;;;;;;;6.38;3.53;;;21.70;60.00;;;;;;5034749;28;20028;-77
2022/05/01 09:12:49;;;;;;;8.10;3.50;;;21.90;59.80;;;;;;5034009;28;20044;-78
2022/05/01 09:13:45;;;;;;;9.27;3.30;;;21.90;58.70;;;;;;5034727;28;20018;-77
2022/05/01 09:16:12;;;;;;;6.55;3.10;;;21.90;59.00;;;;;;5034098;28;20061;-77
2022/05/01 09:18:47;;;;;;;11.60;3.35;;;21.70;59.60;;;;;;5035241;28;20029;-77
2022/05/01 09:21:13;;;;;;;52.13;47.75;;;21.80;58.00;;;;;;5034615;28;20372;-77
2022/05/01 09:23:46;;;;;;;1999.90;999.90;;;21.90;58.70;;;;;;5034887;28;20467;-77
2022/05/01 09:26:19;;;;;;;4.47;3.70;;;22.20;59.40;;;;;;5035842;28;20017;-77
2022/05/01 09:28:49;;;;;;;6.97;4.03;;;22.60;58.90;;;;;;5054631;28;20455;-77
2022/05/01 09:31:15;;;;;;;11.63;4.63;;;22.70;57.60;;;;;;5053990;28;20039;-77
2022/05/01 09:33:41;;;;;;;9.07;5.80;;;23.00;56.40;;;;;;5046771;28;20043;-76
2022/05/01 09:36:08;;;;;;;22.80;6.03;;;22.80;56.00;;;;;;5034198;28;20491;-75
2022/05/01 09:38:34;;;;;;;10.23;5.88;;;22.70;54.70;;;;;;5034371;28;20045;-77
2022/05/01 09:41:04;;;;;;;33.25;7.30;;;22.50;55.10;;;;;;5033982;28;20077;-76
2022/05/01 09:43:41;;;;;;;10.38;4.55;;;22.40;56.40;;;;;;5033609;28;20013;-75
2022/05/01 09:46:12;;;;;;;30.38;28.05;;;22.30;57.00;;;;;;5032381;28;20009;-76
2022/05/01 09:48:37;;;;;;;16.30;5.75;;;22.30;58.90;;;;;;5033186;28;20025;-76
2022/05/01 09:51:16;;;;;;;12.60;4.78;;;22.50;58.80;;;;;;5033975;28;20025;-76
2022/05/01 09:53:43;;;;;;;11.88;6.43;;;22.70;59.20;;;;;;5033943;28;20018;-74
2022/05/01 09:56:09;;;;;;;54.13;29.75;;;22.80;58.00;;;;;;5034324;28;20021;-76
2022/05/01 09:58:38;;;;;;;239.02;81.38;;;22.80;57.20;;;;;;5033764;28;20029;-75
2022/05/01 10:01:09;;;;;;;33.83;8.23;;;;;;;;;;5033978;28;20039;-76
2022/05/01 10:03:39;;;;;;;14.30;6.10;;;23.10;57.30;;;;;;5034063;28;20025;-78
2022/05/01 10:06:06;;;;;;;13.13;5.25;;;;;;;;;;5034350;28;20030;-76
2022/05/01 10:08:34;;;;;;;10.07;4.70;;;23.40;56.10;;;;;;5033800;28;20017;-77
2022/05/01 10:11:00;;;;;;;7.70;5.20;;;23.30;55.90;;;;;;5033462;28;20032;-77
2022/05/01 10:13:27;;;;;;;12.13;4.43;;;22.70;54.90;;;;;;5034173;28;20055;-76
2022/05/01 10:15:54;;;;;;;21.38;4.88;;;22.20;55.20;;;;;;5033477;28;20021;-76
2022/05/01 10:18:24;;;;;;;11.05;6.00;;;22.00;57.70;;;;;;5031370;28;20400;-76
2022/05/01 10:20:50;;;;;;;12.38;6.78;;;22.00;59.10;;;;;;5032410;28;20036;-77
2022/05/01 10:23:16;;;;;;;10.63;7.45;;;21.90;58.60;;;;;;5033598;28;20036;-78
2022/05/01 10:26:06;;;;;;;145.15;83.35;;;21.90;58.40;;;;;;5033438;28;20037;-75
2022/05/01 10:28:47;;;;;;;33.25;12.65;;;22.00;59.90;;;;;;5033199;28;20031;-76
2022/05/01 10:34:49;;;;;;;33.15;20.95;;;22.10;58.80;;;;;;5018623;28;20467;-76
2022/05/01 10:37:40;;;;;;;15.85;11.15;;;22.00;58.50;;;;;;5032705;28;20010;-74
2022/05/01 10:40:06;;;;;;;64.55;37.38;;;22.10;59.50;;;;;;5029192;28;20061;-75
2022/05/01 10:42:42;;;;;;;28.85;11.73;;;22.10;60.20;;;;;;5032914;28;20376;-74
2022/05/01 10:45:28;;;;;;;29.40;10.57;;;22.20;61.80;;;;;;5025025;28;20029;-75
2022/05/01 10:47:55;;;;;;;13.45;6.78;;;22.40;59.50;;;;;;5029916;28;20381;-73
2022/05/01 10:50:21;;;;;;;31.05;7.88;;;22.60;60.60;;;;;;5016881;28;20026;-74
2022/05/01 10:53:04;;;;;;;24.92;9.50;;;22.70;61.50;;;;;;5021754;28;20053;-72
2022/05/01 10:55:48;;;;;;;28.13;9.02;;;22.50;62.90;;;;;;5022368;28;20491;-76
2022/05/01 10:58:28;;;;;;;45.20;21.58;;;22.40;59.90;;;;;;5022560;28;20472;-76
2022/05/01 11:00:55;;;;;;;1203.97;742.28;;;22.30;61.90;;;;;;5026774;28;20029;-75
2022/05/01 11:03:29;;;;;;;245.60;187.07;;;22.30;61.90;;;;;;5035118;28;20468;-75
2022/05/01 11:06:04;;;;;;;459.85;318.27;;;22.30;62.80;;;;;;5037782;28;20341;-77
2022/05/01 11:08:36;;;;;;;231.10;157.52;;;22.10;62.50;;;;;;5034693;28;20033;-77
2022/05/01 11:11:08;;;;;;;57.83;36.42;;;22.10;61.60;;;;;;5019215;28;20029;-76
2022/05/01 11:13:40;;;;;;;302.10;234.95;;;22.00;61.10;;;;;;5018433;28;20029;-76
2022/05/01 11:16:07;;;;;;;;;;;21.90;60.70;;;;;;5021203;28;20021;-75
2022/05/01 11:18:42;;;;;;;45.25;31.48;;;22.00;59.50;;;;;;5033728;28;19905;-74
2022/05/01 11:21:20;;;;;;;380.15;272.30;;;21.90;59.30;;;;;;5032811;28;20367;-76
2022/05/01 11:23:56;;;;;;;368.90;237.13;;;21.90;60.70;;;;;;5055564;28;20154;-76
2022/05/01 11:26:22;;;;;;;439.45;314.20;;;22.10;60.90;;;;;;5052852;28;20025;-77
2022/05/01 11:28:56;;;;;;;131.30;73.45;;;22.30;63.30;;;;;;5044763;28;20040;-75
2022/05/01 11:31:40;;;;;;;86.95;51.75;;;22.50;60.20;;;;;;5031775;28;20024;-75
2022/05/01 11:34:19;;;;;;;61.00;38.42;;;;;;;;;;5016359;28;20025;-77
2022/05/01 11:36:58;;;;;;;77.78;43.45;;;;;;;;;;5023444;28;20453;-74
2022/05/01 11:40:02;;;;;;;80.63;59.88;;;;;;;;;;5029078;28;20031;-75
2022/05/01 11:42:36;;;;;;;988.47;729.03;;;;;;;;;;5032572;28;20041;-79
2022/05/01 11:45:04;;;;;;;675.45;497.23;;;;;;;;;;5048217;28;20025;-78
2022/05/01 11:47:34;;;;;;;796.42;576.92;;;;;;;;;;5034808;28;20758;-79
2022/05/01 11:50:01;;;;;;;1464.93;902.97;;;;;;;;;;5036884;28;20049;-77
2022/05/01 11:52:28;;;;;;;575.88;441.60;;;;;;;;;;5015709;28;20374;-81
2022/05/01 11:54:58;;;;;;;1581.75;879.40;;;;;;;;;;5057748;28;20028;-76
2022/05/01 12:03:11;;;;;;;1643.32;916.60;;;;;;;;;;5047418;28;20033;-76
2022/05/01 12:05:45;;;;;;;1195.75;783.20;;;;;;;;;;5038718;28;20010;-74
2022/05/01 12:08:12;;;;;;;749.30;597.25;;;;;;;;;;5062233;28;20020;-77
2022/05/01 12:10:45;;;;;;;976.13;706.58;;;;;;;;;;5017564;28;20025;-78
2022/05/01 12:13:22;;;;;;;1999.90;999.90;;;;;;;;;;5016910;28;20026;-75
2022/05/01 12:15:49;;;;;;;1793.03;885.97;;;;;;;;;;5016552;28;20357;-77
2022/05/01 12:18:16;;;;;;;1505.32;894.15;;;;;;;;;;5014630;28;20025;-76
2022/05/01 12:20:42;;;;;;;460.52;379.83;;;;;;;;;;5016462;28;20053;-77
2022/05/01 12:23:12;;;;;;;1871.80;998.97;;;;;;;;;;5028963;28;20044;-77
2022/05/01 12:25:41;;;;;;;312.90;246.38;;;;;;;;;;5046098;28;20025;-79
2022/05/01 12:28:15;;;;;;;1956.10;974.80;;;;;;;;;;5044018;28;20025;-79
2022/05/01 12:31:06;;;;;;;1622.53;914.35;;;;;;;;;;5046610;28;20021;-76
2022/05/01 12:33:32;;;;;;;578.93;421.47;;;;;;;;;;5044725;28;20064;-80
2022/05/01 12:35:59;;;;;;;1694.10;967.92;;;;;;;;;;5044909;28;20040;-79
2022/05/01 12:38:29;;;;;;;1662.68;840.28;;;;;;;;;;5044976;28;20025;-80
2022/05/01 12:44:00;;;;;;;1142.60;816.22;;;;;;;;;;5041461;28;20375;-80
2022/05/01 12:46:30;;;;;;;651.85;494.25;;;;;;;;;;5039062;28;20025;-74
2022/05/01 12:48:58;;;;;;;623.42;499.80;;;;;;;;;;5034758;28;20037;-80
2022/05/01 12:51:39;;;;;;;506.92;384.38;;;;;;;;;;5035649;28;20026;-74
2022/05/01 12:54:10;;;;;;;76.22;53.53;;;;;;;;;;5037098;28;20681;-80
2022/05/01 12:56:37;;;;;;;104.97;72.57;;;;;;;;;;5039418;28;20032;-79
2022/05/01 12:59:22;;;;;;;97.70;60.83;;;;;;;;;;5072801;28;20104;-77
2022/05/01 13:01:48;;;;;;;59.75;36.95;;;;;;;;;;5062082;28;20068;-78
2022/05/01 13:04:27;;;;;;;51.25;28.08;;;;;;;;;;5025298;28;20074;-78
2022/05/01 13:06:54;;;;;;;35.47;28.23;;;;;;;;;;5027653;28;20022;-80
2022/05/01 13:09:21;;;;;;;25.50;18.73;;;;;;;;;;5037088;28;20041;-76
2022/05/01 13:12:00;;;;;;;23.45;19.65;;;;;;;;;;5023024;28;20112;-76
2022/05/01 13:14:32;;;;;;;20.50;15.88;;;;;;;;;;5053322;28;20056;-79
2022/05/01 13:17:07;;;;;;;16.33;12.05;;;;;;;;;;5048344;28;20403;-79
2022/05/01 13:19:33;;;;;;;16.23;11.73;;;;;;;;;;5024715;28;20385;-80
2022/05/01 13:21:59;;;;;;;11.73;8.65;;;;;;;;;;5015267;28;20029;-80
2022/05/01 13:24:30;;;;;;;15.90;9.38;;;;;;;;;;5042230;28;20084;-80